GOBAK EGKK-EGSG
Flight info
| Callsign | GOBAK |
|---|---|
| Flight time | 0h 22m |
| Altitude | 3000 |
| Route | LAM |
| Aircraft | PA24/L-SDGRY/S |
Departure
| Time | 2026-05-04 15:00 |
|---|---|
| Airport | London Gatwick Airport (EGKK) |
Arrival
| Time | 2026-05-04 15:22 |
|---|---|
| Airport | Stapleford Aerodrome (EGSG) |
| Time | Latitude | Longitude | Altitude | Speed | Heading |
|---|---|---|---|---|---|
| 2026-05-04 14:40 | 51.14755 | -0.17361 | 207 ft | 0 kts | 83° |
| 2026-05-04 14:47 | 51.14767 | -0.17319 | 206 ft | 12 kts | 37° |
| 2026-05-04 14:47 | 51.14818 | -0.17368 | 209 ft | 9 kts | 268° |
| 2026-05-04 14:47 | 51.14809 | -0.17451 | 207 ft | 7 kts | 258° |
| 2026-05-04 14:47 | 51.14800 | -0.17510 | 207 ft | 5 kts | 257° |
| 2026-05-04 14:48 | 51.14795 | -0.17562 | 209 ft | 6 kts | 275° |
| 2026-05-04 14:48 | 51.14824 | -0.17645 | 209 ft | 11 kts | 312° |
| 2026-05-04 14:48 | 51.14868 | -0.17680 | 207 ft | 0 kts | 347° |
| 2026-05-04 14:50 | 51.14870 | -0.17680 | 207 ft | 2 kts | 348° |
| 2026-05-04 14:50 | 51.14957 | -0.17714 | 210 ft | 20 kts | 347° |
| 2026-05-04 14:51 | 51.15078 | -0.17749 | 213 ft | 11 kts | 354° |
| 2026-05-04 14:51 | 51.15117 | -0.17757 | 208 ft | 0 kts | 353° |
| 2026-05-04 14:52 | 51.15192 | -0.17772 | 214 ft | 16 kts | 353° |
| 2026-05-04 14:52 | 51.15245 | -0.17841 | 207 ft | 15 kts | 272° |
| 2026-05-04 14:53 | 51.15223 | -0.18007 | 207 ft | 19 kts | 257° |
| 2026-05-04 14:53 | 51.15182 | -0.18344 | 206 ft | 25 kts | 259° |
| 2026-05-04 14:53 | 51.15146 | -0.18617 | 206 ft | 27 kts | 258° |
| 2026-05-04 14:53 | 51.15117 | -0.18827 | 206 ft | 29 kts | 258° |
| 2026-05-04 14:54 | 51.15075 | -0.19132 | 206 ft | 26 kts | 258° |
| 2026-05-04 14:54 | 51.15039 | -0.19396 | 210 ft | 22 kts | 257° |
| 2026-05-04 14:54 | 51.15008 | -0.19618 | 208 ft | 19 kts | 257° |
| 2026-05-04 14:54 | 51.14981 | -0.19805 | 210 ft | 16 kts | 261° |
| 2026-05-04 14:55 | 51.14956 | -0.19994 | 214 ft | 25 kts | 257° |
| 2026-05-04 14:55 | 51.14917 | -0.20277 | 207 ft | 25 kts | 257° |
| 2026-05-04 14:55 | 51.14884 | -0.20520 | 213 ft | 16 kts | 258° |
| 2026-05-04 14:55 | 51.14832 | -0.20646 | 207 ft | 13 kts | 211° |
| 2026-05-04 14:56 | 51.14761 | -0.20707 | 207 ft | 10 kts | 208° |
| 2026-05-04 14:56 | 51.14708 | -0.20717 | 208 ft | 5 kts | 166° |
| 2026-05-04 14:56 | 51.14699 | -0.20714 | 208 ft | 0 kts | 168° |
| 2026-05-04 14:57 | 51.14664 | -0.20701 | 208 ft | 16 kts | 167° |
| 2026-05-04 14:58 | 51.14597 | -0.20606 | 208 ft | 12 kts | 83° |
| 2026-05-04 14:58 | 51.14603 | -0.20560 | 208 ft | 0 kts | 77° |
| 2026-05-04 14:59 | 51.14766 | -0.19458 | 311 ft | 99 kts | 73° |
| 2026-05-04 15:00 | 51.14963 | -0.18330 | 712 ft | 110 kts | 74° |
| 2026-05-04 15:00 | 51.15181 | -0.17149 | 1216 ft | 120 kts | 72° |
| 2026-05-04 15:00 | 51.15443 | -0.15832 | 1720 ft | 125 kts | 72° |
| 2026-05-04 15:01 | 51.16084 | -0.13126 | 2497 ft | 136 kts | 62° |
| 2026-05-04 15:01 | 51.16721 | -0.12027 | 2759 ft | 140 kts | 34° |
| 2026-05-04 15:01 | 51.17651 | -0.11447 | 2924 ft | 146 kts | 19° |
| 2026-05-04 15:01 | 51.18617 | -0.10928 | 3005 ft | 147 kts | 20° |
| 2026-05-04 15:02 | 51.19576 | -0.10355 | 2976 ft | 146 kts | 21° |
| 2026-05-04 15:02 | 51.20520 | -0.09769 | 2982 ft | 144 kts | 22° |
| 2026-05-04 15:02 | 51.21454 | -0.09198 | 2974 ft | 144 kts | 21° |
| 2026-05-04 15:02 | 51.22387 | -0.08668 | 2970 ft | 142 kts | 20° |
| 2026-05-04 15:03 | 51.23318 | -0.08150 | 2969 ft | 141 kts | 20° |
| 2026-05-04 15:03 | 51.24224 | -0.07533 | 2993 ft | 140 kts | 29° |
| 2026-05-04 15:03 | 51.24990 | -0.06606 | 3058 ft | 137 kts | 41° |
| 2026-05-04 15:03 | 51.25686 | -0.05574 | 3116 ft | 136 kts | 44° |
| 2026-05-04 15:04 | 51.26361 | -0.04495 | 3096 ft | 140 kts | 46° |
| 2026-05-04 15:04 | 51.27014 | -0.03354 | 3132 ft | 138 kts | 48° |
| 2026-05-04 15:04 | 51.27645 | -0.02169 | 3099 ft | 141 kts | 50° |
| 2026-05-04 15:04 | 51.28261 | -0.00932 | 3042 ft | 146 kts | 52° |
| 2026-05-04 15:05 | 51.28863 | 0.00372 | 3104 ft | 143 kts | 54° |
| 2026-05-04 15:05 | 51.29413 | 0.01670 | 3195 ft | 140 kts | 56° |
| 2026-05-04 15:05 | 51.29919 | 0.02997 | 3191 ft | 144 kts | 59° |
| 2026-05-04 15:05 | 51.30324 | 0.04461 | 3150 ft | 146 kts | 69° |
| 2026-05-04 15:06 | 51.30631 | 0.06050 | 3031 ft | 151 kts | 74° |
| 2026-05-04 15:06 | 51.30878 | 0.07647 | 3062 ft | 146 kts | 76° |
| 2026-05-04 15:06 | 51.31222 | 0.09144 | 3059 ft | 143 kts | 63° |
| 2026-05-04 15:07 | 51.32389 | 0.11617 | 3097 ft | 141 kts | 49° |
| 2026-05-04 15:07 | 51.33114 | 0.12710 | 3029 ft | 144 kts | 40° |
| 2026-05-04 15:07 | 51.33873 | 0.13749 | 2992 ft | 144 kts | 40° |
| 2026-05-04 15:07 | 51.34631 | 0.14799 | 2955 ft | 144 kts | 41° |
| 2026-05-04 15:08 | 51.35371 | 0.15855 | 2948 ft | 142 kts | 41° |
| 2026-05-04 15:08 | 51.36102 | 0.16913 | 2953 ft | 141 kts | 42° |
| 2026-05-04 15:08 | 51.36819 | 0.17964 | 2985 ft | 139 kts | 43° |
| 2026-05-04 15:08 | 51.37514 | 0.19047 | 2995 ft | 139 kts | 44° |
| 2026-05-04 15:09 | 51.38227 | 0.20093 | 2995 ft | 139 kts | 38° |
| 2026-05-04 15:09 | 51.39028 | 0.20957 | 2983 ft | 140 kts | 32° |
| 2026-05-04 15:09 | 51.39897 | 0.21700 | 2935 ft | 141 kts | 25° |
| 2026-05-04 15:10 | 51.41679 | 0.22951 | 2943 ft | 141 kts | 23° |
| 2026-05-04 15:10 | 51.42575 | 0.23602 | 2918 ft | 142 kts | 25° |
| 2026-05-04 15:10 | 51.44361 | 0.24902 | 2927 ft | 139 kts | 22° |
| 2026-05-04 15:11 | 51.45264 | 0.25512 | 2879 ft | 143 kts | 22° |
| 2026-05-04 15:11 | 51.46215 | 0.26032 | 2823 ft | 144 kts | 16° |
| 2026-05-04 15:11 | 51.47191 | 0.26413 | 2749 ft | 146 kts | 12° |
| 2026-05-04 15:11 | 51.48180 | 0.26672 | 2752 ft | 142 kts | 9° |
| 2026-05-04 15:12 | 51.49159 | 0.26880 | 2728 ft | 141 kts | 7° |
| 2026-05-04 15:12 | 51.50165 | 0.27078 | 2810 ft | 153 kts | 8° |
| 2026-05-04 15:12 | 51.51237 | 0.27304 | 3031 ft | 157 kts | 8° |
| 2026-05-04 15:12 | 51.52336 | 0.27511 | 3170 ft | 158 kts | 7° |
| 2026-05-04 15:13 | 51.53338 | 0.27729 | 2996 ft | 144 kts | 10° |
| 2026-05-04 15:13 | 51.54316 | 0.27953 | 2838 ft | 139 kts | 5° |
| 2026-05-04 15:13 | 51.55255 | 0.27977 | 2779 ft | 134 kts | 1° |
| 2026-05-04 15:13 | 51.56179 | 0.27992 | 2769 ft | 130 kts | 1° |
| 2026-05-04 15:14 | 51.57087 | 0.27912 | 2693 ft | 130 kts | 355° |
| 2026-05-04 15:14 | 51.57967 | 0.27667 | 2589 ft | 129 kts | 349° |
| 2026-05-04 15:14 | 51.58804 | 0.27244 | 2413 ft | 128 kts | 344° |
| 2026-05-04 15:14 | 51.59609 | 0.26631 | 2281 ft | 123 kts | 332° |
| 2026-05-04 15:15 | 51.60316 | 0.25882 | 2287 ft | 120 kts | 328° |
| 2026-05-04 15:15 | 51.60959 | 0.25084 | 2234 ft | 120 kts | 319° |
| 2026-05-04 15:15 | 51.61602 | 0.24198 | 2154 ft | 120 kts | 323° |
| 2026-05-04 15:16 | 51.62798 | 0.22530 | 2089 ft | 111 kts | 323° |
| 2026-05-04 15:16 | 51.63367 | 0.21737 | 2054 ft | 106 kts | 322° |
| 2026-05-04 15:16 | 51.64468 | 0.20219 | 1934 ft | 100 kts | 322° |
| 2026-05-04 15:17 | 51.64918 | 0.19407 | 1930 ft | 95 kts | 307° |
| 2026-05-04 15:17 | 51.65567 | 0.17188 | 1912 ft | 123 kts | 302° |
| 2026-05-04 15:17 | 51.65989 | 0.15954 | 1894 ft | 127 kts | 304° |
| 2026-05-04 15:18 | 51.66433 | 0.14719 | 1902 ft | 128 kts | 304° |
| 2026-05-04 15:18 | 51.66727 | 0.13365 | 1936 ft | 130 kts | 278° |
| 2026-05-04 15:18 | 51.66470 | 0.11951 | 1912 ft | 138 kts | 246° |
| 2026-05-04 15:19 | 51.65227 | 0.09537 | 1255 ft | 139 kts | 227° |
| 2026-05-04 15:19 | 51.64593 | 0.08575 | 1210 ft | 116 kts | 214° |
| 2026-05-04 15:19 | 51.63374 | 0.09239 | 1131 ft | 97 kts | 129° |
| 2026-05-04 15:20 | 51.62853 | 0.09963 | 1146 ft | 101 kts | 135° |
| 2026-05-04 15:20 | 51.62309 | 0.10687 | 1029 ft | 100 kts | 134° |
| 2026-05-04 15:20 | 51.61983 | 0.11491 | 923 ft | 79 kts | 84° |
| 2026-05-04 15:20 | 51.62299 | 0.12156 | 829 ft | 76 kts | 38° |
| 2026-05-04 15:21 | 51.62709 | 0.12691 | 765 ft | 69 kts | 33° |
| 2026-05-04 15:21 | 51.63131 | 0.13173 | 746 ft | 75 kts | 33° |
| 2026-05-04 15:21 | 51.63931 | 0.14088 | 531 ft | 71 kts | 32° |
| 2026-05-04 15:22 | 51.64333 | 0.14555 | 411 ft | 72 kts | 36° |
| 2026-05-04 15:22 | 51.64730 | 0.15003 | 257 ft | 68 kts | 37° |
| 2026-05-04 15:22 | 51.65363 | 0.15741 | 147 ft | 41 kts | 35° |
| 2026-05-04 15:23 | 51.65519 | 0.15914 | 131 ft | 18 kts | 35° |
| 2026-05-04 15:23 | 51.65610 | 0.16015 | 118 ft | 8 kts | 34° |
| 2026-05-04 15:23 | 51.65635 | 0.15996 | 118 ft | 1 kts | 258° |
| 2026-05-04 15:23 | 51.65627 | 0.15802 | 129 ft | 22 kts | 276° |
| 2026-05-04 15:24 | 51.65620 | 0.15616 | 140 ft | 0 kts | 174° |